Time;durP1;ratioP1;P1;durP2;ratioP2;P2;SDS_P1;SDS_P2;PMS_P1;PMS_P2;Temp;Humidity;BMP_temperature;BMP_pressure;BME280_temperature;BME280_humidity;BME280_pressure;Samples;Min_cycle;Max_cycle;Signal;HPM_P1;HPM_P2
2023/05/20 00:00:34;;;;;;;4.47;2.33;;;;;;;;;;5077458;28;20234;-64
2023/05/20 00:03:02;;;;;;;3.67;2.30;;;;;;;;;;5077480;28;20210;-64
2023/05/20 00:05:31;;;;;;;5.30;2.53;;;;;;;;;;5077208;28;20234;-64
2023/05/20 00:08:03;;;;;;;3.37;2.40;;;;;;;;;;5077387;28;20218;-64
2023/05/20 00:10:31;;;;;;;3.37;2.50;;;;;;;;;;5077732;28;20210;-63
2023/05/20 00:13:00;;;;;;;6.30;2.77;;;;;;;;;;5077408;28;20316;-64
2023/05/20 00:15:29;;;;;;;2.40;2.20;;;;;;;;;;5077278;28;20226;-65
2023/05/20 00:17:57;;;;;;;2.83;2.17;;;;;;;;;;5077418;28;20214;-64
2023/05/20 00:20:26;;;;;;;4.17;2.40;;;;;;;;;;5077092;28;20214;-64
2023/05/20 00:22:54;;;;;;;3.47;2.57;;;;;;;;;;5077611;28;20234;-64
2023/05/20 00:25:24;;;;;;;2.33;2.13;;;;;;;;;;5077467;28;20222;-64
2023/05/20 00:27:52;;;;;;;3.13;2.10;;;;;;;;;;5077342;28;20551;-64
2023/05/20 00:30:20;;;;;;;5.03;2.23;;;;;;;;;;5077229;28;20294;-64
2023/05/20 00:32:48;;;;;;;2.97;2.30;;;;;;;;;;5077300;28;20234;-65
2023/05/20 00:35:16;;;;;;;3.40;2.50;;;;;;;;;;5077124;28;20276;-65
2023/05/20 00:37:44;;;;;;;4.50;2.33;;;;;;;;;;5077562;28;20210;-65
2023/05/20 00:40:13;;;;;;;6.03;2.40;;;;;;;;;;5081088;28;20210;-65
2023/05/20 00:42:43;;;;;;;2.37;2.17;;;;;;;;;;5081296;28;20198;-65
2023/05/20 00:45:11;;;;;;;3.83;2.20;;;;;;;;;;5081066;28;20226;-65
2023/05/20 00:47:39;;;;;;;3.07;2.10;;;;;;;;;;5080926;28;20692;-65
2023/05/20 00:50:09;;;;;;;2.40;2.20;;;;;;;;;;5080847;28;20206;-65
2023/05/20 00:52:37;;;;;;;2.40;2.10;;;;;;;;;;5081002;28;20233;-65
2023/05/20 00:55:05;;;;;;;6.33;2.23;;;;;;;;;;5078537;28;20222;-65
2023/05/20 00:57:33;;;;;;;3.63;2.17;;;;;;;;;;5072675;28;20660;-65
2023/05/20 01:00:03;;;;;;;2.73;2.53;;;;;;;;;;5080817;28;20214;-65
2023/05/20 01:02:31;;;;;;;4.00;2.33;;;;;;;;;;5080845;28;20225;-65
2023/05/20 01:04:59;;;;;;;4.67;2.17;;;;;;;;;;5080279;28;20206;-65
2023/05/20 01:07:27;;;;;;;2.47;1.90;;;;;;;;;;5080842;28;20202;-64
2023/05/20 01:09:55;;;;;;;8.90;2.53;;;;;;;;;;5080678;28;20232;-65
2023/05/20 01:12:26;;;;;;;3.07;2.30;;;;;;;;;;5080662;28;20260;-66
2023/05/20 01:14:57;;;;;;;4.23;2.13;;;;;;;;;;5080338;28;20680;-65
2023/05/20 01:17:31;;;;;;;3.10;2.77;;;;;;;;;;5080361;28;20225;-64
2023/05/20 01:20:00;;;;;;;2.47;2.10;;;;;;;;;;5080023;28;20297;-64
2023/05/20 01:22:30;;;;;;;3.10;2.57;;;;;;;;;;5080189;28;20268;-64
2023/05/20 01:24:58;;;;;;;2.93;2.27;;;;;;;;;;5080125;28;20206;-64
2023/05/20 01:27:26;;;;;;;3.20;2.27;;;;;;;;;;5080108;28;20202;-64
2023/05/20 01:29:54;;;;;;;2.77;2.00;;;;;;;;;;5080377;28;20252;-64
2023/05/20 01:32:24;;;;;;;2.37;2.13;;;;;;;;;;5080016;28;20217;-64
2023/05/20 01:34:53;;;;;;;6.30;2.03;;;;;;;;;;5079757;28;20202;-64
2023/05/20 01:37:22;;;;;;;2.17;2.07;;;;;;;;;;5079938;28;20202;-64
2023/05/20 01:39:52;;;;;;;2.30;2.10;;;;;;;;;;5079947;28;20210;-65
2023/05/20 01:42:20;;;;;;;4.43;2.20;;;;;;;;;;5080310;28;20255;-64
2023/05/20 01:44:48;;;;;;;2.50;2.00;;;;;;;;;;5080100;28;20207;-64
2023/05/20 01:47:16;;;;;;;2.93;2.40;;;;;;;;;;5079875;28;20681;-64
2023/05/20 01:49:46;;;;;;;2.80;2.30;;;;;;;;;;5079324;28;20614;-64
2023/05/20 01:52:15;;;;;;;2.30;1.83;;;;;;;;;;5079682;28;20704;-64
2023/05/20 01:54:49;;;;;;;5.53;2.63;;;;;;;;;;5079770;28;20264;-64
2023/05/20 01:57:19;;;;;;;5.27;2.30;;;;;;;;;;5079974;28;20206;-64
2023/05/20 01:59:48;;;;;;;2.07;1.83;;;;;;;;;;5079595;28;20221;-64
2023/05/20 02:02:16;;;;;;;2.57;2.20;;;;;;;;;;5079640;28;20238;-64
2023/05/20 02:04:46;;;;;;;6.70;2.37;;;;;;;;;;5079479;28;20208;-64
2023/05/20 02:07:14;;;;;;;2.97;2.20;;;;;;;;;;5079748;28;20202;-64
2023/05/20 02:09:42;;;;;;;3.83;2.70;;;;;;;;;;5079626;28;20213;-64
2023/05/20 02:12:15;;;;;;;2.47;2.27;;;;;;;;;;5079370;28;20206;-64
2023/05/20 02:14:45;;;;;;;2.53;2.33;;;;;;;;;;5079587;28;20230;-64
2023/05/20 02:17:15;;;;;;;4.47;2.60;;;;;;;;;;5078002;28;20658;-64
2023/05/20 02:19:43;;;;;;;2.93;2.20;;;;;;;;;;5078918;28;20194;-64
2023/05/20 02:22:11;;;;;;;4.37;2.23;;;;;;;;;;5078442;28;20202;-64
2023/05/20 02:24:39;;;;;;;2.60;2.30;;;;;;;;;;5078903;28;20202;-64
2023/05/20 02:27:07;;;;;;;4.47;2.40;;;;;;;;;;5079128;28;20229;-64
2023/05/20 02:29:35;;;;;;;3.63;2.30;;;;;;;;;;5079397;28;20234;-64
2023/05/20 02:32:05;;;;;;;2.40;2.03;;;;;;;;;;5078898;28;20267;-64
2023/05/20 02:34:33;;;;;;;4.30;2.63;;;;;;;;;;5078706;28;20234;-64
2023/05/20 02:37:01;;;;;;;6.30;2.50;;;;;;;;;;5078751;28;20590;-64
2023/05/20 02:39:29;;;;;;;3.77;2.30;;;;;;;;;;5078707;28;20202;-64
2023/05/20 02:41:57;;;;;;;5.53;2.50;;;;;;;;;;5078989;28;20214;-63
2023/05/20 02:44:25;;;;;;;5.80;2.37;;;;;;;;;;5079089;28;20202;-64
2023/05/20 02:46:53;;;;;;;3.57;2.20;;;;;;;;;;5078910;28;20253;-64
2023/05/20 02:49:23;;;;;;;2.50;2.30;;;;;;;;;;5078635;28;20217;-64
2023/05/20 02:51:52;;;;;;;4.10;2.20;;;;;;;;;;5078816;28;20241;-64
2023/05/20 02:54:20;;;;;;;3.03;2.20;;;;;;;;;;5078623;28;20289;-64
2023/05/20 02:56:48;;;;;;;4.40;2.40;;;;;;;;;;5076625;28;20222;-64
2023/05/20 02:59:16;;;;;;;5.57;2.67;;;;;;;;;;5070522;28;20206;-64
2023/05/20 03:01:45;;;;;;;3.13;2.37;;;;;;;;;;5077809;28;20301;-64
2023/05/20 03:04:13;;;;;;;3.17;2.40;;;;;;;;;;5078855;28;20224;-62
2023/05/20 03:06:45;;;;;;;3.10;2.53;;;;;;;;;;5072811;28;20223;-63
2023/05/20 03:09:14;;;;;;;2.20;2.10;;;;;;;;;;5076310;28;20285;-65
2023/05/20 03:11:42;;;;;;;5.60;2.30;;;;;;;;;;5077763;28;20218;-64
2023/05/20 03:14:11;;;;;;;4.70;2.40;;;;;;;;;;5078146;28;20269;-65
2023/05/20 03:16:40;;;;;;;3.70;2.30;;;;;;;;;;5078096;28;20225;-65
2023/05/20 03:19:08;;;;;;;3.27;2.10;;;;;;;;;;5078144;28;20664;-65
2023/05/20 03:21:37;;;;;;;6.03;2.47;;;;;;;;;;5077814;28;20206;-64
2023/05/20 03:24:07;;;;;;;4.57;2.27;;;;;;;;;;5078060;28;20241;-65
2023/05/20 03:26:36;;;;;;;2.97;2.13;;;;;;;;;;5078119;28;20221;-65
2023/05/20 03:29:05;;;;;;;4.93;2.50;;;;;;;;;;5077826;28;20572;-65
2023/05/20 03:31:33;;;;;;;5.27;2.50;;;;;;;;;;5078176;28;20263;-64
2023/05/20 03:34:01;;;;;;;2.53;2.33;;;;;;;;;;5077739;28;20252;-64
2023/05/20 03:36:29;;;;;;;2.57;2.03;;;;;;;;;;5077345;28;20704;-64
2023/05/20 03:38:57;;;;;;;3.43;2.23;;;;;;;;;;5075950;28;20206;-64
2023/05/20 03:41:26;;;;;;;2.53;1.97;;;;;;;;;;5076206;28;20206;-65
2023/05/20 03:43:54;;;;;;;3.10;2.70;;;;;;;;;;5075771;28;20341;-64
2023/05/20 03:46:22;;;;;;;4.77;2.47;;;;;;;;;;5075921;28;20230;-64
2023/05/20 03:48:50;;;;;;;10.30;2.37;;;;;;;;;;5076220;28;20295;-64
2023/05/20 03:51:18;;;;;;;3.50;2.63;;;;;;;;;;5075716;28;20275;-64
2023/05/20 03:53:46;;;;;;;3.27;2.30;;;;;;;;;;5077510;28;20229;-64
2023/05/20 03:56:15;;;;;;;7.77;3.13;;;;;;;;;;5077519;28;20722;-64
2023/05/20 03:58:45;;;;;;;4.47;2.40;;;;;;;;;;5078127;28;20248;-61
2023/05/20 04:01:14;;;;;;;4.10;2.33;;;;;;;;;;5077602;28;20326;-64
2023/05/20 04:03:42;;;;;;;3.27;2.57;;;;;;;;;;5077870;28;20562;-64
2023/05/20 04:06:11;;;;;;;4.17;2.53;;;;;;;;;;5077140;28;20638;-63
2023/05/20 04:08:39;;;;;;;2.90;2.37;;;;;;;;;;5077503;28;20658;-62
2023/05/20 04:11:07;;;;;;;5.13;2.50;;;;;;;;;;5077845;28;20673;-62
2023/05/20 04:13:36;;;;;;;2.77;2.10;;;;;;;;;;5079551;28;20235;-62
2023/05/20 04:16:06;;;;;;;3.33;2.43;;;;;;;;;;5081531;28;20602;-65
2023/05/20 04:18:37;;;;;;;3.67;2.33;;;;;;;;;;5082091;28;20206;-62
2023/05/20 04:21:07;;;;;;;4.33;2.40;;;;;;;;;;5081165;28;20573;-62
2023/05/20 04:23:35;;;;;;;2.93;2.10;;;;;;;;;;5081557;28;20214;-62
2023/05/20 04:26:04;;;;;;;4.53;2.43;;;;;;;;;;5081351;28;20246;-63
2023/05/20 04:28:32;;;;;;;5.20;2.70;;;;;;;;;;5081209;28;20288;-63
2023/05/20 04:31:01;;;;;;;4.20;2.37;;;;;;;;;;5081478;28;20264;-63
2023/05/20 04:33:31;;;;;;;3.57;2.10;;;;;;;;;;5081522;28;20211;-63
2023/05/20 04:36:00;;;;;;;3.97;2.60;;;;;;;;;;5081140;28;20317;-63
2023/05/20 04:38:29;;;;;;;3.13;2.20;;;;;;;;;;5081273;28;20209;-62
2023/05/20 04:40:57;;;;;;;2.97;2.27;;;;;;;;;;5081164;28;20229;-62
2023/05/20 04:43:28;;;;;;;3.37;2.30;;;;;;;;;;5081029;28;20206;-62
2023/05/20 04:45:57;;;;;;;2.40;2.20;;;;;;;;;;5081543;28;20233;-62
2023/05/20 04:48:26;;;;;;;2.83;2.23;;;;;;;;;;5080964;28;20206;-62
2023/05/20 04:50:55;;;;;;;3.23;2.50;;;;;;;;;;5080777;28;20206;-62
2023/05/20 04:53:24;;;;;;;5.87;2.57;;;;;;;;;;5080670;28;20730;-62
2023/05/20 04:55:55;;;;;;;6.87;2.60;;;;;;;;;;5080694;28;20596;-62
2023/05/20 04:58:24;;;;;;;4.03;2.63;;;;;;;;;;5081174;28;20222;-62
2023/05/20 05:00:52;;;;;;;3.87;2.53;;;;;;;;;;5080620;28;20242;-64
2023/05/20 05:03:20;;;;;;;4.20;2.80;;;;;;;;;;5081546;28;20236;-64
2023/05/20 05:05:48;;;;;;;7.03;2.80;;;;;;;;;;5080577;28;20280;-64
2023/05/20 05:08:17;;;;;;;4.13;2.40;;;;;;;;;;5072602;28;20203;-63
2023/05/20 05:10:46;;;;;;;4.80;2.40;;;;;;;;;;5078896;28;20217;-64
2023/05/20 05:13:14;;;;;;;5.97;2.90;;;;;;;;;;5080792;28;20210;-64
2023/05/20 05:15:42;;;;;;;3.10;2.47;;;;;;;;;;5080686;28;20230;-64
2023/05/20 05:18:11;;;;;;;3.93;3.07;;;;;;;;;;5080666;28;20284;-64
2023/05/20 05:20:39;;;;;;;6.23;5.10;;;;;;;;;;5079976;28;20657;-64
2023/05/20 05:23:07;;;;;;;5.03;2.80;;;;;;;;;;5080335;28;20578;-64
2023/05/20 05:25:37;;;;;;;2.63;2.43;;;;;;;;;;5079585;28;20226;-64
2023/05/20 05:28:05;;;;;;;3.43;2.40;;;;;;;;;;5080233;28;20210;-64
2023/05/20 05:30:33;;;;;;;2.67;2.37;;;;;;;;;;5080271;28;20264;-64
2023/05/20 05:33:00;;;;;;;3.17;2.70;;;;;;;;;;5080281;28;20207;-64
2023/05/20 05:35:29;;;;;;;2.70;2.43;;;;;;;;;;5080032;28;20226;-64
2023/05/20 05:37:57;;;;;;;3.53;2.70;;;;;;;;;;5079913;28;20202;-64
2023/05/20 05:40:25;;;;;;;3.57;2.60;;;;;;;;;;5080034;28;20715;-64
2023/05/20 05:42:54;;;;;;;4.53;3.23;;;;;;;;;;5080107;28;20289;-64
2023/05/20 05:45:22;;;;;;;3.37;2.73;;;;;;;;;;5079987;28;20642;-64
2023/05/20 05:47:50;;;;;;;4.40;3.10;;;;;;;;;;5080118;28;20202;-64
2023/05/20 05:50:18;;;;;;;4.03;2.67;;;;;;;;;;5079974;28;20206;-64
2023/05/20 05:52:46;;;;;;;2.80;2.50;;;;;;;;;;5080036;28;20206;-64
2023/05/20 05:55:14;;;;;;;2.50;2.30;;;;;;;;;;5079932;28;20226;-64
2023/05/20 05:57:42;;;;;;;4.47;2.77;;;;;;;;;;5079578;28;20210;-64
2023/05/20 06:00:12;;;;;;;4.83;2.93;;;;;;;;;;5079551;28;20615;-64
2023/05/20 06:02:40;;;;;;;2.90;2.63;;;;;;;;;;5079913;28;20217;-64
2023/05/20 06:05:09;;;;;;;3.67;2.50;;;;;;;;;;5079714;28;20256;-64
2023/05/20 06:07:37;;;;;;;3.87;2.77;;;;;;;;;;5079700;28;20210;-64
2023/05/20 06:10:05;;;;;;;2.97;2.67;;;;;;;;;;5079637;28;20210;-64
2023/05/20 06:12:33;;;;;;;4.87;2.93;;;;;;;;;;5079564;28;20237;-62
2023/05/20 06:15:01;;;;;;;6.97;3.10;;;;;;;;;;5079482;28;20210;-62
2023/05/20 06:17:31;;;;;;;4.80;3.87;;;;;;;;;;5079498;28;20260;-62
2023/05/20 06:19:59;;;;;;;3.77;3.40;;;;;;;;;;5079179;28;20206;-62
2023/05/20 06:22:27;;;;;;;4.57;4.17;;;;;;;;;;5079395;28;20236;-62
2023/05/20 06:24:59;;;;;;;6.47;4.80;;;;;;;;;;5079222;28;20206;-62
2023/05/20 06:27:27;;;;;;;5.00;4.50;;;;;;;;;;5078900;28;20205;-62
2023/05/20 06:29:55;;;;;;;3.80;3.50;;;;;;;;;;5079233;28;20214;-62
2023/05/20 06:32:23;;;;;;;6.43;4.13;;;;;;;;;;5067912;28;20665;-63
2023/05/20 06:34:52;;;;;;;4.43;3.50;;;;;;;;;;5078285;28;20232;-62
2023/05/20 06:37:23;;;;;;;3.90;2.63;;;;;;;;;;5077440;28;20226;-64
2023/05/20 06:39:52;;;;;;;5.33;3.20;;;;;;;;;;5078049;28;20198;-64
2023/05/20 06:42:21;;;;;;;4.20;2.53;;;;;;;;;;5075795;28;20721;-64
2023/05/20 06:44:48;;;;;;;4.20;3.03;;;;;;;;;;5073470;28;20202;-66
2023/05/20 06:47:17;;;;;;;4.27;3.20;;;;;;;;;;5077797;28;20654;-64
2023/05/20 06:49:45;;;;;;;3.03;2.83;;;;;;;;;;5074794;28;20214;-64
2023/05/20 06:52:15;;;;;;;5.27;3.43;;;;;;;;;;5078474;28;20279;-64
2023/05/20 06:54:43;;;;;;;4.23;3.37;;;;;;;;;;5077918;28;20210;-66
2023/05/20 06:57:11;;;;;;;3.90;3.33;;;;;;;;;;5078252;28;20229;-66
2023/05/20 06:59:40;;;;;;;3.70;2.90;;;;;;;;;;5078456;28;20226;-67
2023/05/20 07:02:08;;;;;;;5.13;3.53;;;;;;;;;;5077982;28;20230;-64
2023/05/20 07:04:36;;;;;;;4.57;3.00;;;;;;;;;;5077869;28;20198;-66
2023/05/20 07:07:04;;;;;;;5.23;3.10;;;;;;;;;;5077667;28;20218;-65
2023/05/20 07:09:34;;;;;;;4.67;3.30;;;;;;;;;;5078035;28;20206;-66
2023/05/20 07:12:02;;;;;;;6.10;3.10;;;;;;;;;;5078029;28;20243;-64
2023/05/20 07:14:30;;;;;;;4.27;3.50;;;;;;;;;;5078011;28;20202;-65
2023/05/20 07:16:58;;;;;;;6.37;3.67;;;;;;;;;;5078234;28;20234;-65
2023/05/20 07:19:26;;;;;;;3.77;3.10;;;;;;;;;;5078094;28;20214;-66
2023/05/20 07:21:54;;;;;;;4.50;3.03;;;;;;;;;;5078255;28;20234;-66
2023/05/20 07:24:22;;;;;;;3.43;3.13;;;;;;;;;;5067568;28;20207;-66
2023/05/20 07:26:51;;;;;;;7.30;5.97;;;;;;;;;;5078164;28;20222;-66
2023/05/20 07:29:19;;;;;;;4.97;3.33;;;;;;;;;;5078181;28;20210;-67
2023/05/20 07:31:47;;;;;;;3.40;3.00;;;;;;;;;;5078176;28;20202;-68
2023/05/20 07:34:15;;;;;;;4.23;3.03;;;;;;;;;;5077723;28;20209;-66
2023/05/20 07:36:43;;;;;;;3.40;3.00;;;;;;;;;;5077886;28;20261;-65
2023/05/20 07:39:13;;;;;;;4.83;3.10;;;;;;;;;;5077826;28;20210;-66
2023/05/20 07:41:42;;;;;;;5.10;3.00;;;;;;;;;;5077819;28;20662;-66
2023/05/20 07:44:12;;;;;;;3.33;3.03;;;;;;;;;;5077936;28;20206;-66
2023/05/20 07:46:40;;;;;;;4.73;3.60;;;;;;;;;;5077693;28;20271;-66
2023/05/20 07:49:08;;;;;;;3.87;3.27;;;;;;;;;;5077727;28;20214;-67
2023/05/20 07:51:37;;;;;;;3.80;3.23;;;;;;;;;;5078014;28;20202;-67
2023/05/20 07:54:05;;;;;;;4.30;3.33;;;;;;;;;;5077748;28;20236;-66
2023/05/20 07:56:33;;;;;;;5.43;3.20;;;;;;;;;;5077544;28;20642;-66
2023/05/20 07:59:02;;;;;;;3.60;3.30;;;;;;;;;;5075031;28;20247;-66
2023/05/20 08:01:31;;;;;;;4.60;3.10;;;;;;;;;;5074754;28;20261;-67
2023/05/20 08:03:59;;;;;;;4.70;3.27;;;;;;;;;;5077717;28;20241;-68
2023/05/20 08:06:27;;;;;;;5.77;3.37;;;;;;;;;;5077781;28;20276;-68
2023/05/20 08:08:56;;;;;;;4.97;3.07;;;;;;;;;;5077298;28;20222;-68
2023/05/20 08:11:24;;;;;;;3.80;3.30;;;;;;;;;;5077503;28;20206;-66
2023/05/20 08:13:52;;;;;;;4.70;3.17;;;;;;;;;;5077519;28;20696;-66
2023/05/20 08:16:21;;;;;;;3.67;3.23;;;;;;;;;;5077517;28;20222;-69
2023/05/20 08:18:50;;;;;;;3.87;3.47;;;;;;;;;;5077604;28;20218;-67
2023/05/20 08:21:18;;;;;;;5.40;3.20;;;;;;;;;;5076995;28;20256;-68
2023/05/20 08:23:47;;;;;;;5.00;3.30;;;;;;;;;;5077474;28;20213;-67
2023/05/20 08:26:14;;;;;;;9.57;4.23;;;;;;;;;;5077058;28;20268;-69
2023/05/20 08:28:43;;;;;;;6.93;3.07;;;;;;;;;;5077517;28;20209;-67
2023/05/20 08:31:11;;;;;;;3.80;3.50;;;;;;;;;;5076733;28;20214;-67
2023/05/20 08:33:39;;;;;;;4.37;3.20;;;;;;;;;;5065410;28;20649;-67
2023/05/20 08:36:08;;;;;;;5.87;3.70;;;;;;;;;;5076864;28;20257;-68
2023/05/20 08:38:36;;;;;;;8.30;4.07;;;;;;;;;;5077033;28;20240;-67
2023/05/20 08:41:04;;;;;;;6.50;3.43;;;;;;;;;;5077306;28;20210;-66
2023/05/20 08:43:33;;;;;;;4.87;3.67;;;;;;;;;;5077234;28;20666;-68
2023/05/20 08:46:04;;;;;;;6.83;3.33;;;;;;;;;;5077143;28;20222;-67
2023/05/20 08:48:33;;;;;;;4.07;3.43;;;;;;;;;;5077352;28;20205;-67
2023/05/20 08:51:02;;;;;;;5.33;3.53;;;;;;;;;;5077135;28;20210;-67
2023/05/20 08:53:32;;;;;;;4.67;3.50;;;;;;;;;;5077228;28;20210;-67
2023/05/20 08:56:01;;;;;;;3.90;3.50;;;;;;;;;;5076900;28;20271;-67
2023/05/20 08:58:31;;;;;;;4.43;3.50;;;;;;;;;;5077065;28;20269;-67
2023/05/20 09:00:59;;;;;;;5.67;3.87;;;;;;;;;;5080245;28;20240;-66
2023/05/20 09:03:27;;;;;;;5.30;3.50;;;;;;;;;;5080994;28;20202;-66
2023/05/20 09:06:03;;;;;;;5.40;3.87;;;;;;;;;;5080236;28;20636;-68
2023/05/20 09:08:33;;;;;;;6.67;3.70;;;;;;;;;;5080466;28;20557;-67
2023/05/20 09:11:01;;;;;;;4.83;3.60;;;;;;;;;;5067497;28;20202;-67
2023/05/20 09:13:31;;;;;;;6.60;3.70;;;;;;;;;;5080462;28;20260;-67
2023/05/20 09:15:59;;;;;;;7.90;4.47;;;;;;;;;;5081215;28;20232;-67
2023/05/20 09:18:28;;;;;;;6.37;5.30;;;;;;;;;;5080463;28;20262;-67
2023/05/20 09:20:56;;;;;;;4.40;4.00;;;;;;;;;;5079919;28;20289;-67
2023/05/20 09:23:26;;;;;;;5.70;4.33;;;;;;;;;;5080033;28;20237;-66
2023/05/20 09:25:55;;;;;;;7.37;4.13;;;;;;;;;;5079948;28;20236;-67
2023/05/20 09:28:24;;;;;;;6.13;3.43;;;;;;;;;;5080290;28;20207;-67
2023/05/20 09:30:56;;;;;;;4.13;3.70;;;;;;;;;;5080136;28;20289;-67
2023/05/20 09:33:28;;;;;;;6.87;3.67;;;;;;;;;;5080164;28;20198;-67
2023/05/20 09:36:02;;;;;;;6.47;3.97;;;;;;;;;;5079732;28;20707;-67
2023/05/20 09:38:34;;;;;;;8.60;3.57;;;;;;;;;;5080155;28;20269;-67
2023/05/20 09:41:06;;;;;;;6.77;4.10;;;;;;;;;;5080016;28;20271;-67
2023/05/20 09:43:35;;;;;;;4.30;3.40;;;;;;;;;;5079963;28;20268;-66
2023/05/20 09:46:04;;;;;;;3.97;3.50;;;;;;;;;;5079995;28;20574;-67
2023/05/20 09:48:33;;;;;;;9.73;4.10;;;;;;;;;;5079910;28;20736;-67
2023/05/20 09:51:01;;;;;;;5.17;4.00;;;;;;;;;;5079530;28;20202;-66
2023/05/20 09:53:29;;;;;;;5.53;4.37;;;;;;;;;;5079844;28;20210;-66
2023/05/20 09:55:58;;;;;;;4.10;3.70;;;;;;;;;;5079699;28;20635;-66
2023/05/20 09:58:29;;;;;;;4.00;3.47;;;;;;;;;;5079411;28;20230;-66
2023/05/20 10:00:56;;;;;;;4.47;3.90;;;;;;;;;;5079662;28;20268;-66
2023/05/20 10:03:26;;;;;;;4.33;3.47;;;;;;;;;;5079758;28;20217;-66
2023/05/20 10:06:07;;;;;;;5.73;3.83;;;;;;;;;;5079396;28;20251;-66
2023/05/20 10:08:42;;;;;;;6.00;4.03;;;;;;;;;;5079555;28;20202;-66
2023/05/20 10:11:15;;;;;;;6.13;4.03;;;;;;;;;;5079200;28;20653;-66
2023/05/20 10:13:59;;;;;;;5.37;3.87;;;;;;;;;;5079446;28;20584;-66
2023/05/20 10:16:32;;;;;;;6.47;4.43;;;;;;;;;;5079389;28;20259;-67
2023/05/20 10:19:05;;;;;;;3.93;3.57;;;;;;;;;;5078830;28;20566;-66
2023/05/20 10:21:33;;;;;;;4.93;4.10;;;;;;;;;;5079254;28;20276;-67
2023/05/20 10:24:08;;;;;;;5.43;4.00;;;;;;;;;;5079127;28;20206;-67
2023/05/20 10:26:37;;;;;;;4.23;3.60;;;;;;;;;;5079107;28;20582;-65
2023/05/20 10:29:16;;;;;;;5.80;3.63;;;;;;;;;;5079516;28;20273;-67
2023/05/20 10:31:45;;;;;;;8.13;4.13;;;;;;;;;;5079430;28;20241;-67
2023/05/20 10:34:15;;;;;;;7.40;4.00;;;;;;;;;;5068649;28;20218;-66
2023/05/20 10:36:46;;;;;;;4.47;3.93;;;;;;;;;;5079151;28;20233;-67
2023/05/20 10:39:15;;;;;;;4.50;3.90;;;;;;;;;;5078950;28;20229;-66
2023/05/20 10:41:43;;;;;;;6.53;3.40;;;;;;;;;;5078773;28;20670;-66
2023/05/20 10:44:11;;;;;;;6.27;3.93;;;;;;;;;;5078800;28;20206;-66
2023/05/20 10:46:40;;;;;;;4.67;3.80;;;;;;;;;;5078747;28;20276;-66
2023/05/20 10:49:33;;;;;;;5.03;3.70;;;;;;;;;;5078372;28;20207;-66
2023/05/20 10:52:01;;;;;;;5.93;3.77;;;;;;;;;;5078549;28;20609;-66
2023/05/20 10:54:35;;;;;;;7.20;3.73;;;;;;;;;;5078732;28;20206;-66
2023/05/20 10:57:06;;;;;;;4.40;3.30;;;;;;;;;;5078735;28;20233;-66
2023/05/20 10:59:34;;;;;;;5.47;4.30;;;;;;;;;;5078367;28;20226;-66
2023/05/20 11:02:04;;;;;;;6.30;3.70;;;;;;;;;;5078239;28;20259;-66
2023/05/20 11:04:32;;;;;;;4.87;3.70;;;;;;;;;;5078355;28;20206;-66
2023/05/20 11:07:00;;;;;;;3.43;3.13;;;;;;;;;;5078173;28;20226;-67
2023/05/20 11:09:30;;;;;;;3.80;3.37;;;;;;;;;;5078153;28;20305;-68
2023/05/20 11:11:58;;;;;;;7.67;4.90;;;;;;;;;;5078241;28;20703;-67
2023/05/20 11:14:28;;;;;;;5.83;3.87;;;;;;;;;;5078181;28;20628;-67
2023/05/20 11:16:56;;;;;;;5.37;4.37;;;;;;;;;;5078366;28;20235;-67
2023/05/20 11:19:26;;;;;;;4.43;3.53;;;;;;;;;;5078052;28;20234;-66
2023/05/20 11:21:54;;;;;;;4.70;4.00;;;;;;;;;;5077883;28;20217;-66
2023/05/20 11:24:24;;;;;;;4.87;3.60;;;;;;;;;;5078082;28;20271;-66
2023/05/20 11:26:52;;;;;;;4.57;3.70;;;;;;;;;;5078053;28;20226;-66
2023/05/20 11:29:21;;;;;;;5.17;3.50;;;;;;;;;;5077875;28;20209;-66
2023/05/20 11:31:50;;;;;;;6.37;3.83;;;;;;;;;;5077902;28;20554;-66
2023/05/20 11:34:20;;;;;;;5.13;4.03;;;;;;;;;;5077569;28;20202;-66
2023/05/20 11:36:57;;;;;;;4.20;3.37;;;;;;;;;;5077776;28;20236;-66
2023/05/20 11:39:26;;;;;;;3.83;3.30;;;;;;;;;;5077647;28;20221;-67
2023/05/20 11:41:54;;;;;;;4.77;3.97;;;;;;;;;;5077701;28;20257;-66
2023/05/20 11:44:23;;;;;;;6.00;3.97;;;;;;;;;;5078088;28;20214;-66
2023/05/20 11:46:50;;;;;;;5.10;3.63;;;;;;;;;;5077675;28;20634;-65
2023/05/20 11:49:18;;;;;;;6.87;4.13;;;;;;;;;;5077634;28;20217;-65
2023/05/20 11:51:46;;;;;;;4.97;4.00;;;;;;;;;;5077543;28;20211;-65
2023/05/20 11:54:16;;;;;;;5.23;3.80;;;;;;;;;;5076544;28;20206;-65
2023/05/20 11:56:44;;;;;;;4.90;3.63;;;;;;;;;;5076303;28;20226;-65
2023/05/20 11:59:13;;;;;;;5.43;3.60;;;;;;;;;;5076552;28;20294;-65
2023/05/20 12:01:41;;;;;;;4.90;3.30;;;;;;;;;;5076455;28;20230;-66
2023/05/20 12:04:11;;;;;;;6.70;3.63;;;;;;;;;;5077182;28;20209;-65
2023/05/20 12:06:41;;;;;;;5.77;3.67;;;;;;;;;;5077250;28;20245;-66
2023/05/20 12:09:10;;;;;;;6.40;3.70;;;;;;;;;;5077189;28;20194;-66
2023/05/20 12:11:40;;;;;;;6.03;3.57;;;;;;;;;;5074825;28;20205;-66
2023/05/20 12:14:09;;;;;;;3.93;3.60;;;;;;;;;;5077235;28;20213;-67
2023/05/20 12:16:37;;;;;;;4.07;3.43;;;;;;;;;;5074743;28;20225;-66
2023/05/20 12:19:07;;;;;;;5.80;4.33;;;;;;;;;;5076918;28;20222;-67
2023/05/20 12:21:35;;;;;;;4.30;3.37;;;;;;;;;;5074148;28;20202;-67
2023/05/20 12:24:05;;;;;;;5.80;3.77;;;;;;;;;;5077074;28;20230;-65
2023/05/20 12:26:34;;;;;;;3.97;3.57;;;;;;;;;;5077022;28;20271;-67
2023/05/20 12:29:03;;;;;;;3.20;2.90;;;;;;;;;;5076857;28;20229;-66
2023/05/20 12:31:31;;;;;;;3.57;3.03;;;;;;;;;;5077107;28;20260;-65
2023/05/20 12:34:01;;;;;;;4.47;3.20;;;;;;;;;;5074665;28;20202;-65
2023/05/20 12:36:30;;;;;;;3.20;2.90;;;;;;;;;;5080287;28;20271;-66
2023/05/20 12:38:58;;;;;;;3.47;3.00;;;;;;;;;;5080978;28;20226;-65
2023/05/20 12:41:26;;;;;;;3.20;2.90;;;;;;;;;;5077532;28;20248;-66
2023/05/20 12:43:54;;;;;;;3.70;2.93;;;;;;;;;;5079709;28;20225;-65
2023/05/20 12:46:23;;;;;;;2.93;2.73;;;;;;;;;;5079824;28;20222;-65
2023/05/20 12:48:52;;;;;;;3.17;2.97;;;;;;;;;;5077402;28;20223;-65
2023/05/20 12:51:19;;;;;;;7.03;3.43;;;;;;;;;;5080717;28;20232;-65
2023/05/20 12:53:48;;;;;;;3.13;2.80;;;;;;;;;;5080119;28;20288;-66
2023/05/20 12:56:16;;;;;;;3.43;3.13;;;;;;;;;;5079283;28;20231;-66
2023/05/20 12:58:44;;;;;;;4.80;3.30;;;;;;;;;;5079547;28;20206;-65
2023/05/20 13:01:12;;;;;;;3.33;3.00;;;;;;;;;;5078682;28;21710;-65
2023/05/20 13:03:41;;;;;;;4.37;3.57;;;;;;;;;;5077199;28;20678;-67
2023/05/20 13:06:09;;;;;;;6.23;3.10;;;;;;;;;;5079977;28;20226;-65
2023/05/20 13:08:37;;;;;;;3.90;3.43;;;;;;;;;;5080231;28;20260;-64
2023/05/20 13:11:05;;;;;;;3.23;2.90;;;;;;;;;;5080502;28;20574;-64
2023/05/20 13:13:33;;;;;;;3.63;3.23;;;;;;;;;;5080353;28;20613;-66
2023/05/20 13:16:02;;;;;;;3.23;2.93;;;;;;;;;;5080274;28;20271;-65
2023/05/20 13:18:30;;;;;;;5.93;2.90;;;;;;;;;;5080805;28;20202;-66
2023/05/20 13:20:59;;;;;;;3.53;2.97;;;;;;;;;;5080265;28;20241;-66
2023/05/20 13:23:27;;;;;;;3.33;2.97;;;;;;;;;;5080411;28;20206;-66
2023/05/20 13:25:55;;;;;;;5.73;2.70;;;;;;;;;;5080108;28;20261;-66
2023/05/20 13:28:23;;;;;;;5.83;3.70;;;;;;;;;;5080068;28;20222;-66
2023/05/20 13:30:51;;;;;;;3.93;3.07;;;;;;;;;;5080359;28;20214;-65
2023/05/20 13:33:19;;;;;;;3.43;3.13;;;;;;;;;;5080046;28;20201;-66
2023/05/20 13:35:47;;;;;;;6.17;2.80;;;;;;;;;;5079586;28;20589;-65
2023/05/20 13:38:17;;;;;;;4.30;2.80;;;;;;;;;;5080129;28;20245;-66
2023/05/20 13:40:45;;;;;;;5.87;2.80;;;;;;;;;;5079775;28;20339;-65
2023/05/20 13:43:13;;;;;;;4.00;3.00;;;;;;;;;;5080102;28;20210;-65
2023/05/20 13:45:41;;;;;;;5.70;3.23;;;;;;;;;;5079430;28;20226;-65
2023/05/20 13:48:10;;;;;;;4.00;3.00;;;;;;;;;;5079906;28;20206;-66
2023/05/20 13:50:38;;;;;;;3.60;2.90;;;;;;;;;;5079690;28;20212;-67
2023/05/20 13:53:11;;;;;;;4.50;3.07;;;;;;;;;;5079415;28;20203;-66
2023/05/20 13:55:40;;;;;;;2.90;2.70;;;;;;;;;;5079803;28;20233;-65
2023/05/20 13:58:08;;;;;;;5.97;3.07;;;;;;;;;;5079526;28;20215;-66
2023/05/20 14:00:37;;;;;;;8.63;3.00;;;;;;;;;;5079582;28;20242;-67
2023/05/20 14:03:07;;;;;;;4.57;3.10;;;;;;;;;;5079541;28;20232;-67
2023/05/20 14:05:36;;;;;;;7.10;3.07;;;;;;;;;;5079232;28;20222;-66
2023/05/20 14:08:04;;;;;;;6.67;2.73;;;;;;;;;;5079297;28;20214;-66
2023/05/20 14:10:32;;;;;;;4.43;2.70;;;;;;;;;;5079451;28;20252;-67
2023/05/20 14:13:01;;;;;;;4.40;3.20;;;;;;;;;;5079412;28;20206;-66
2023/05/20 14:15:30;;;;;;;3.80;2.90;;;;;;;;;;5079413;28;20222;-65
2023/05/20 14:17:58;;;;;;;4.53;3.20;;;;;;;;;;5079407;28;20231;-66
2023/05/20 14:20:26;;;;;;;3.00;2.80;;;;;;;;;;5079100;28;20234;-65
2023/05/20 14:22:54;;;;;;;4.53;2.67;;;;;;;;;;5079039;28;20210;-64
2023/05/20 14:25:22;;;;;;;5.40;3.40;;;;;;;;;;5078522;28;20697;-63
2023/05/20 14:27:50;;;;;;;5.40;3.50;;;;;;;;;;5078337;28;20587;-64
2023/05/20 14:30:19;;;;;;;7.43;2.83;;;;;;;;;;5079024;28;20234;-66
2023/05/20 14:32:47;;;;;;;8.10;3.00;;;;;;;;;;5078711;28;20202;-64
2023/05/20 14:35:17;;;;;;;3.33;2.60;;;;;;;;;;5076479;28;20229;-64
2023/05/20 14:37:45;;;;;;;2.50;2.30;;;;;;;;;;5077908;28;20282;-64
2023/05/20 14:40:13;;;;;;;4.57;3.00;;;;;;;;;;5078482;28;20217;-64
2023/05/20 14:42:41;;;;;;;3.73;2.50;;;;;;;;;;5078176;28;20198;-64
2023/05/20 14:45:09;;;;;;;5.97;2.97;;;;;;;;;;5078445;28;20225;-65
2023/05/20 14:47:39;;;;;;;5.50;2.87;;;;;;;;;;5078524;28;20202;-64
2023/05/20 14:50:08;;;;;;;3.10;2.80;;;;;;;;;;5078401;28;20205;-65
2023/05/20 14:52:36;;;;;;;3.13;2.90;;;;;;;;;;5078188;28;20206;-66